sensor_id;sensor_type;location;lat;lon;timestamp;pressure;altitude;pressure_sealevel;temperature;humidity
59417;BME280;45222;52.458;20.914;2023-04-29T00:00:56;100754.89;;;4.00;69.34
59417;BME280;45222;52.458;20.914;2023-04-29T00:04:41;100744.14;;;4.01;69.08
59417;BME280;45222;52.458;20.914;2023-04-29T00:08:30;100746.79;;;4.00;69.01
59417;BME280;45222;52.458;20.914;2023-04-29T00:12:19;100744.38;;;3.97;69.36
59417;BME280;45222;52.458;20.914;2023-04-29T00:16:06;100746.23;;;3.91;69.41
59417;BME280;45222;52.458;20.914;2023-04-29T00:19:51;100748.41;;;3.86;69.24
59417;BME280;45222;52.458;20.914;2023-04-29T00:23:36;100749.02;;;3.81;69.32
59417;BME280;45222;52.458;20.914;2023-04-29T00:27:21;100741.51;;;3.78;69.12
59417;BME280;45222;52.458;20.914;2023-04-29T00:31:06;100734.99;;;3.77;69.64
59417;BME280;45222;52.458;20.914;2023-04-29T00:34:51;100739.01;;;3.80;69.73
59417;BME280;45222;52.458;20.914;2023-04-29T00:38:37;100734.35;;;3.84;69.78
59417;BME280;45222;52.458;20.914;2023-04-29T00:42:22;100729.20;;;3.88;69.73
59417;BME280;45222;52.458;20.914;2023-04-29T00:46:07;100724.73;;;3.92;69.45
59417;BME280;45222;52.458;20.914;2023-04-29T00:49:53;100720.48;;;3.95;69.46
59417;BME280;45222;52.458;20.914;2023-04-29T00:53:39;100712.89;;;3.97;69.47
59417;BME280;45222;52.458;20.914;2023-04-29T00:57:25;100714.97;;;3.98;69.23
59417;BME280;45222;52.458;20.914;2023-04-29T01:01:12;100712.52;;;3.97;69.08
59417;BME280;45222;52.458;20.914;2023-04-29T01:04:58;100712.34;;;3.97;68.67
59417;BME280;45222;52.458;20.914;2023-04-29T01:08:55;100716.73;;;3.98;69.03
59417;BME280;45222;52.458;20.914;2023-04-29T01:12:47;100711.27;;;3.98;69.28
59417;BME280;45222;52.458;20.914;2023-04-29T01:16:39;100713.86;;;4.01;69.26
59417;BME280;45222;52.458;20.914;2023-04-29T01:20:28;100711.67;;;4.07;69.24
59417;BME280;45222;52.458;20.914;2023-04-29T01:24:14;100715.98;;;4.12;68.93
59417;BME280;45222;52.458;20.914;2023-04-29T01:28:06;100712.63;;;4.13;69.15
59417;BME280;45222;52.458;20.914;2023-04-29T01:32:02;100716.36;;;4.11;69.19
59417;BME280;45222;52.458;20.914;2023-04-29T01:35:59;100715.69;;;4.08;69.01
59417;BME280;45222;52.458;20.914;2023-04-29T01:39:56;100714.02;;;4.03;68.96
59417;BME280;45222;52.458;20.914;2023-04-29T01:43:47;100711.81;;;3.98;69.40
59417;BME280;45222;52.458;20.914;2023-04-29T01:47:35;100713.98;;;3.93;69.74
59417;BME280;45222;52.458;20.914;2023-04-29T01:51:21;100713.12;;;3.93;69.47
59417;BME280;45222;52.458;20.914;2023-04-29T01:55:07;100713.06;;;3.96;69.68
59417;BME280;45222;52.458;20.914;2023-04-29T01:58:52;100710.55;;;4.00;69.87
59417;BME280;45222;52.458;20.914;2023-04-29T02:02:37;100708.39;;;4.02;69.92
59417;BME280;45222;52.458;20.914;2023-04-29T02:06:22;100705.21;;;4.03;69.60
59417;BME280;45222;52.458;20.914;2023-04-29T02:10:09;100702.02;;;4.05;69.57
59417;BME280;45222;52.458;20.914;2023-04-29T02:13:55;100698.19;;;4.02;69.95
59417;BME280;45222;52.458;20.914;2023-04-29T02:17:40;100699.13;;;3.99;69.69
59417;BME280;45222;52.458;20.914;2023-04-29T02:21:25;100700.71;;;3.98;69.73
59417;BME280;45222;52.458;20.914;2023-04-29T02:25:11;100698.80;;;3.97;69.87
59417;BME280;45222;52.458;20.914;2023-04-29T02:28:56;100695.81;;;3.97;70.26
59417;BME280;45222;52.458;20.914;2023-04-29T02:32:41;100694.71;;;3.99;70.14
59417;BME280;45222;52.458;20.914;2023-04-29T02:36:26;100691.45;;;4.05;70.24
59417;BME280;45222;52.458;20.914;2023-04-29T02:40:13;100691.20;;;4.09;70.43
59417;BME280;45222;52.458;20.914;2023-04-29T02:43:58;100691.14;;;4.13;69.96
59417;BME280;45222;52.458;20.914;2023-04-29T02:47:43;100693.56;;;4.16;69.66
59417;BME280;45222;52.458;20.914;2023-04-29T02:51:28;100693.55;;;4.17;69.59
59417;BME280;45222;52.458;20.914;2023-04-29T02:55:14;100690.23;;;4.16;69.82
59417;BME280;45222;52.458;20.914;2023-04-29T02:59:00;100691.71;;;4.11;70.14
59417;BME280;45222;52.458;20.914;2023-04-29T03:02:45;100688.09;;;4.07;70.01
59417;BME280;45222;52.458;20.914;2023-04-29T03:06:30;100691.45;;;4.05;70.42
59417;BME280;45222;52.458;20.914;2023-04-29T03:10:16;100689.65;;;4.09;70.44
59417;BME280;45222;52.458;20.914;2023-04-29T03:14:02;100685.15;;;4.14;70.74
59417;BME280;45222;52.458;20.914;2023-04-29T03:17:47;100681.02;;;4.19;70.79
59417;BME280;45222;52.458;20.914;2023-04-29T03:21:32;100679.73;;;4.21;70.62
59417;BME280;45222;52.458;20.914;2023-04-29T03:25:18;100676.23;;;4.20;70.36
59417;BME280;45222;52.458;20.914;2023-04-29T03:29:03;100679.79;;;4.19;70.60
59417;BME280;45222;52.458;20.914;2023-04-29T03:32:48;100676.65;;;4.17;70.47
59417;BME280;45222;52.458;20.914;2023-04-29T03:36:33;100676.98;;;4.18;70.35
59417;BME280;45222;52.458;20.914;2023-04-29T03:40:18;100679.62;;;4.19;70.73
59417;BME280;45222;52.458;20.914;2023-04-29T03:44:04;100676.23;;;4.21;70.72
59417;BME280;45222;52.458;20.914;2023-04-29T03:47:58;100678.25;;;4.27;70.77
59417;BME280;45222;52.458;20.914;2023-04-29T03:51:47;100680.92;;;4.35;70.72
59417;BME280;45222;52.458;20.914;2023-04-29T03:55:33;100680.96;;;4.42;70.72
59417;BME280;45222;52.458;20.914;2023-04-29T03:59:18;100682.44;;;4.48;70.51
59417;BME280;45222;52.458;20.914;2023-04-29T04:03:03;100677.20;;;4.55;70.20
59417;BME280;45222;52.458;20.914;2023-04-29T04:06:48;100675.66;;;4.62;70.01
59417;BME280;45222;52.458;20.914;2023-04-29T04:10:35;100675.53;;;4.69;69.73
59417;BME280;45222;52.458;20.914;2023-04-29T04:14:20;100676.81;;;4.75;69.78
59417;BME280;45222;52.458;20.914;2023-04-29T04:18:05;100676.33;;;4.82;69.66
59417;BME280;45222;52.458;20.914;2023-04-29T04:21:50;100674.22;;;4.91;69.35
59417;BME280;45222;52.458;20.914;2023-04-29T04:25:36;100673.64;;;5.03;69.41
59417;BME280;45222;52.458;20.914;2023-04-29T04:29:21;100674.54;;;5.19;69.60
59417;BME280;45222;52.458;20.914;2023-04-29T04:33:06;100668.73;;;5.34;68.96
59417;BME280;45222;52.458;20.914;2023-04-29T04:36:51;100670.71;;;5.48;68.76
59417;BME280;45222;52.458;20.914;2023-04-29T04:40:36;100667.38;;;5.63;68.24
59417;BME280;45222;52.458;20.914;2023-04-29T04:44:25;100667.23;;;5.77;67.99
59417;BME280;45222;52.458;20.914;2023-04-29T04:48:10;100665.66;;;5.91;67.31
59417;BME280;45222;52.458;20.914;2023-04-29T04:51:55;100662.33;;;6.06;67.44
59417;BME280;45222;52.458;20.914;2023-04-29T04:55:40;100658.99;;;6.19;66.89
59417;BME280;45222;52.458;20.914;2023-04-29T04:59:25;100657.24;;;6.32;66.75
59417;BME280;45222;52.458;20.914;2023-04-29T05:03:15;100655.34;;;6.44;66.20
59417;BME280;45222;52.458;20.914;2023-04-29T05:07:09;100653.27;;;6.55;65.60
59417;BME280;45222;52.458;20.914;2023-04-29T05:10:54;100650.70;;;6.65;65.57
59417;BME280;45222;52.458;20.914;2023-04-29T05:14:40;100650.79;;;6.81;65.37
59417;BME280;45222;52.458;20.914;2023-04-29T05:18:25;100650.86;;;7.03;65.29
59417;BME280;45222;52.458;20.914;2023-04-29T05:22:10;100649.20;;;7.29;65.03
59417;BME280;45222;52.458;20.914;2023-04-29T05:25:55;100640.92;;;7.51;64.11
59417;BME280;45222;52.458;20.914;2023-04-29T05:29:40;100641.94;;;7.69;63.71
59417;BME280;45222;52.458;20.914;2023-04-29T05:33:25;100641.13;;;7.84;63.13
59417;BME280;45222;52.458;20.914;2023-04-29T05:37:11;100632.54;;;7.97;62.68
59417;BME280;45222;52.458;20.914;2023-04-29T05:40:56;100631.41;;;8.10;62.36
59417;BME280;45222;52.458;20.914;2023-04-29T05:44:41;100638.87;;;8.24;62.27
59417;BME280;45222;52.458;20.914;2023-04-29T05:48:27;100641.83;;;8.42;62.07
59417;BME280;45222;52.458;20.914;2023-04-29T05:52:13;100649.44;;;8.58;61.80
59417;BME280;45222;52.458;20.914;2023-04-29T05:55:58;100642.88;;;8.73;61.51
59417;BME280;45222;52.458;20.914;2023-04-29T05:59:43;100642.98;;;8.84;60.64
59417;BME280;45222;52.458;20.914;2023-04-29T06:03:29;100638.44;;;8.93;60.51
59417;BME280;45222;52.458;20.914;2023-04-29T06:07:14;100635.95;;;9.02;60.54
59417;BME280;45222;52.458;20.914;2023-04-29T06:11:00;100636.98;;;9.17;60.20
59417;BME280;45222;52.458;20.914;2023-04-29T06:14:46;100632.98;;;9.33;59.68
59417;BME280;45222;52.458;20.914;2023-04-29T06:18:31;100635.27;;;9.52;59.23
59417;BME280;45222;52.458;20.914;2023-04-29T06:22:17;100631.71;;;9.70;58.53
59417;BME280;45222;52.458;20.914;2023-04-29T06:26:02;100632.40;;;9.88;58.41
59417;BME280;45222;52.458;20.914;2023-04-29T06:29:47;100628.52;;;10.08;58.56
59417;BME280;45222;52.458;20.914;2023-04-29T06:33:32;100631.27;;;10.28;57.78
59417;BME280;45222;52.458;20.914;2023-04-29T06:37:18;100631.52;;;10.47;57.28
59417;BME280;45222;52.458;20.914;2023-04-29T06:41:04;100633.13;;;10.67;57.01
59417;BME280;45222;52.458;20.914;2023-04-29T06:44:49;100635.39;;;10.88;56.35
59417;BME280;45222;52.458;20.914;2023-04-29T06:48:35;100630.35;;;11.09;56.13
59417;BME280;45222;52.458;20.914;2023-04-29T06:52:20;100629.66;;;11.28;54.96
59417;BME280;45222;52.458;20.914;2023-04-29T06:56:06;100627.61;;;11.48;55.13
59417;BME280;45222;52.458;20.914;2023-04-29T06:59:52;100619.55;;;11.64;54.05
59417;BME280;45222;52.458;20.914;2023-04-29T07:03:37;100623.06;;;11.80;54.22
59417;BME280;45222;52.458;20.914;2023-04-29T07:07:22;100614.91;;;11.97;53.29
59417;BME280;45222;52.458;20.914;2023-04-29T07:11:07;100614.73;;;12.15;52.89
59417;BME280;45222;52.458;20.914;2023-04-29T07:14:52;100612.48;;;12.35;52.20
59417;BME280;45222;52.458;20.914;2023-04-29T07:18:38;100610.26;;;12.53;51.45
59417;BME280;45222;52.458;20.914;2023-04-29T07:22:23;100606.02;;;12.70;50.66
59417;BME280;45222;52.458;20.914;2023-04-29T07:26:13;100610.10;;;12.84;50.10
59417;BME280;45222;52.458;20.914;2023-04-29T07:30:00;100607.66;;;13.02;50.12
59417;BME280;45222;52.458;20.914;2023-04-29T07:33:45;100605.50;;;13.25;49.72
59417;BME280;45222;52.458;20.914;2023-04-29T07:37:31;100597.69;;;13.47;49.54
59417;BME280;45222;52.458;20.914;2023-04-29T07:41:16;100595.09;;;13.67;48.67
59417;BME280;45222;52.458;20.914;2023-04-29T07:45:01;100591.52;;;13.86;48.27
59417;BME280;45222;52.458;20.914;2023-04-29T07:48:47;100589.09;;;14.03;48.27
59417;BME280;45222;52.458;20.914;2023-04-29T07:52:32;100589.20;;;14.19;47.66
59417;BME280;45222;52.458;20.914;2023-04-29T07:56:17;100591.67;;;14.41;48.14
59417;BME280;45222;52.458;20.914;2023-04-29T08:00:05;100590.45;;;14.61;47.53
59417;BME280;45222;52.458;20.914;2023-04-29T08:03:50;100590.05;;;14.76;47.05
59417;BME280;45222;52.458;20.914;2023-04-29T08:07:36;100587.54;;;14.88;45.40
59417;BME280;45222;52.458;20.914;2023-04-29T08:11:21;100592.63;;;14.98;45.17
59417;BME280;45222;52.458;20.914;2023-04-29T08:15:08;100592.36;;;15.11;45.74
59417;BME280;45222;52.458;20.914;2023-04-29T08:18:56;100588.48;;;15.24;45.65
59417;BME280;45222;52.458;20.914;2023-04-29T08:22:41;100581.06;;;15.47;45.21
59417;BME280;45222;52.458;20.914;2023-04-29T08:26:26;100574.15;;;15.76;44.73
59417;BME280;45222;52.458;20.914;2023-04-29T08:30:13;100572.85;;;16.09;44.15
59417;BME280;45222;52.458;20.914;2023-04-29T08:33:58;100572.54;;;16.50;44.44
59417;BME280;45222;52.458;20.914;2023-04-29T08:37:43;100571.02;;;16.84;42.51
59417;BME280;45222;52.458;20.914;2023-04-29T08:41:29;100572.70;;;16.99;42.86
59417;BME280;45222;52.458;20.914;2023-04-29T08:45:19;100563.18;;;17.01;41.71
59417;BME280;45222;52.458;20.914;2023-04-29T08:49:06;100559.82;;;17.00;41.37
59417;BME280;45222;52.458;20.914;2023-04-29T08:52:52;100554.55;;;17.02;41.18
59417;BME280;45222;52.458;20.914;2023-04-29T08:56:41;100554.75;;;17.21;41.78
59417;BME280;45222;52.458;20.914;2023-04-29T09:00:30;100548.50;;;17.33;41.02
59417;BME280;45222;52.458;20.914;2023-04-29T09:04:24;100548.16;;;17.35;41.37
59417;BME280;45222;52.458;20.914;2023-04-29T09:08:14;100549.40;;;17.33;41.52
59417;BME280;45222;52.458;20.914;2023-04-29T09:12:00;100544.98;;;17.29;40.98
59417;BME280;45222;52.458;20.914;2023-04-29T09:15:45;100549.39;;;17.23;40.93
59417;BME280;45222;52.458;20.914;2023-04-29T09:19:32;100546.85;;;17.26;40.56
59417;BME280;45222;52.458;20.914;2023-04-29T09:23:17;100540.70;;;17.39;40.67
59417;BME280;45222;52.458;20.914;2023-04-29T09:27:03;100533.27;;;17.61;39.97
59417;BME280;45222;52.458;20.914;2023-04-29T09:30:48;100537.22;;;17.83;39.23
59417;BME280;45222;52.458;20.914;2023-04-29T09:34:34;100535.41;;;18.04;38.01
59417;BME280;45222;52.458;20.914;2023-04-29T09:38:21;100537.73;;;18.26;38.56
59417;BME280;45222;52.458;20.914;2023-04-29T09:42:06;100534.38;;;18.39;36.83
59417;BME280;45222;52.458;20.914;2023-04-29T09:45:54;100531.03;;;18.58;38.09
59417;BME280;45222;52.458;20.914;2023-04-29T09:49:40;100532.77;;;18.82;37.76
59417;BME280;45222;52.458;20.914;2023-04-29T09:53:29;100533.36;;;19.02;37.41
59417;BME280;45222;52.458;20.914;2023-04-29T09:57:14;100529.36;;;19.15;36.58
59417;BME280;45222;52.458;20.914;2023-04-29T10:01:00;100532.02;;;19.27;36.76
59417;BME280;45222;52.458;20.914;2023-04-29T10:04:49;100522.91;;;19.35;35.61
59417;BME280;45222;52.458;20.914;2023-04-29T10:08:38;100515.95;;;19.27;34.89
59417;BME280;45222;52.458;20.914;2023-04-29T10:12:25;100515.06;;;19.34;35.43
59417;BME280;45222;52.458;20.914;2023-04-29T10:16:17;100513.94;;;19.45;35.77
59417;BME280;45222;52.458;20.914;2023-04-29T10:20:06;100506.11;;;19.57;35.21
59417;BME280;45222;52.458;20.914;2023-04-29T10:23:52;100507.02;;;19.61;35.43
59417;BME280;45222;52.458;20.914;2023-04-29T10:27:37;100499.27;;;19.59;35.74
59417;BME280;45222;52.458;20.914;2023-04-29T10:31:25;100506.06;;;19.40;35.02
59417;BME280;45222;52.458;20.914;2023-04-29T10:35:12;100497.92;;;19.29;35.63
59417;BME280;45222;52.458;20.914;2023-04-29T10:39:00;100496.35;;;19.42;35.47
59417;BME280;45222;52.458;20.914;2023-04-29T10:42:48;100490.20;;;19.70;36.08
59417;BME280;45222;52.458;20.914;2023-04-29T10:46:34;100487.95;;;19.95;35.99
59417;BME280;45222;52.458;20.914;2023-04-29T10:50:21;100476.58;;;20.16;35.87
59417;BME280;45222;52.458;20.914;2023-04-29T10:54:08;100479.77;;;20.06;35.40
59417;BME280;45222;52.458;20.914;2023-04-29T10:57:54;100476.77;;;20.05;34.99
59417;BME280;45222;52.458;20.914;2023-04-29T11:01:48;100476.06;;;20.11;34.78
59417;BME280;45222;52.458;20.914;2023-04-29T11:05:35;100473.52;;;20.30;35.25
59417;BME280;45222;52.458;20.914;2023-04-29T11:09:23;100465.44;;;20.44;34.51
59417;BME280;45222;52.458;20.914;2023-04-29T11:13:25;100469.14;;;20.49;34.56
59417;BME280;45222;52.458;20.914;2023-04-29T11:17:13;100469.05;;;20.66;34.12
59417;BME280;45222;52.458;20.914;2023-04-29T11:21:14;100470.61;;;20.83;33.56
59417;BME280;45222;52.458;20.914;2023-04-29T11:25:02;100464.22;;;21.07;33.77
59417;BME280;45222;52.458;20.914;2023-04-29T11:28:48;100455.48;;;21.31;34.06
59417;BME280;45222;52.458;20.914;2023-04-29T11:32:37;100459.14;;;21.46;33.22
59417;BME280;45222;52.458;20.914;2023-04-29T11:36:23;100448.96;;;21.53;32.69
59417;BME280;45222;52.458;20.914;2023-04-29T11:40:10;100449.41;;;21.60;33.20
59417;BME280;45222;52.458;20.914;2023-04-29T11:43:57;100448.68;;;21.63;32.66
59417;BME280;45222;52.458;20.914;2023-04-29T11:47:44;100440.98;;;21.74;32.95
59417;BME280;45222;52.458;20.914;2023-04-29T11:51:29;100439.67;;;21.90;32.99
59417;BME280;45222;52.458;20.914;2023-04-29T11:55:16;100435.54;;;21.95;32.57
59417;BME280;45222;52.458;20.914;2023-04-29T11:59:01;100444.09;;;22.05;32.64
59417;BME280;45222;52.458;20.914;2023-04-29T12:02:55;100433.75;;;21.88;32.69
59417;BME280;45222;52.458;20.914;2023-04-29T12:06:45;100430.12;;;21.27;33.55
59417;BME280;45222;52.458;20.914;2023-04-29T12:10:30;100432.24;;;21.10;33.80
59417;BME280;45222;52.458;20.914;2023-04-29T12:14:16;100429.06;;;21.37;34.07
59417;BME280;45222;52.458;20.914;2023-04-29T12:18:02;100423.14;;;21.54;33.29
59417;BME280;45222;52.458;20.914;2023-04-29T12:21:50;100418.82;;;21.63;33.58
59417;BME280;45222;52.458;20.914;2023-04-29T12:25:34;100428.56;;;21.66;33.21
59417;BME280;45222;52.458;20.914;2023-04-29T12:29:21;100418.09;;;21.92;32.76
59417;BME280;45222;52.458;20.914;2023-04-29T12:33:08;100412.82;;;21.85;32.44
59417;BME280;45222;52.458;20.914;2023-04-29T12:36:55;100408.73;;;21.98;32.87
59417;BME280;45222;52.458;20.914;2023-04-29T12:40:41;100414.44;;;22.30;33.49
59417;BME280;45222;52.458;20.914;2023-04-29T12:44:34;100408.67;;;22.64;32.00
59417;BME280;45222;52.458;20.914;2023-04-29T12:48:20;100412.24;;;22.49;32.18
59417;BME280;45222;52.458;20.914;2023-04-29T12:52:05;100407.49;;;22.23;32.22
59417;BME280;45222;52.458;20.914;2023-04-29T12:55:53;100403.30;;;22.45;32.95
59417;BME280;45222;52.458;20.914;2023-04-29T12:59:39;100392.53;;;22.64;31.37
59417;BME280;45222;52.458;20.914;2023-04-29T13:03:24;100398.11;;;22.86;32.58
59417;BME280;45222;52.458;20.914;2023-04-29T13:07:09;100388.21;;;22.86;31.90
59417;BME280;45222;52.458;20.914;2023-04-29T13:10:55;100392.77;;;22.56;32.48
59417;BME280;45222;52.458;20.914;2023-04-29T13:14:41;100388.67;;;22.44;32.77
59417;BME280;45222;52.458;20.914;2023-04-29T13:18:26;100380.76;;;22.34;32.90
59417;BME280;45222;52.458;20.914;2023-04-29T13:22:13;100382.70;;;22.12;32.86
59417;BME280;45222;52.458;20.914;2023-04-29T13:25:58;100380.02;;;21.89;33.11
59417;BME280;45222;52.458;20.914;2023-04-29T13:29:43;100382.55;;;21.62;33.70
59417;BME280;45222;52.458;20.914;2023-04-29T13:33:28;100380.86;;;21.28;33.68
59417;BME280;45222;52.458;20.914;2023-04-29T13:37:13;100378.29;;;21.09;34.22
59417;BME280;45222;52.458;20.914;2023-04-29T13:40:59;100371.61;;;21.01;33.95
59417;BME280;45222;52.458;20.914;2023-04-29T13:44:44;100369.80;;;20.91;33.95
59417;BME280;45222;52.458;20.914;2023-04-29T13:48:29;100366.01;;;20.47;34.59
59417;BME280;45222;52.458;20.914;2023-04-29T13:52:14;100374.05;;;20.09;34.99
59417;BME280;45222;52.458;20.914;2023-04-29T13:56:00;100372.45;;;19.63;35.69
59417;BME280;45222;52.458;20.914;2023-04-29T13:59:45;100369.98;;;19.26;36.51
59417;BME280;45222;52.458;20.914;2023-04-29T14:03:30;100374.25;;;18.99;36.87
59417;BME280;45222;52.458;20.914;2023-04-29T14:07:15;100370.58;;;18.82;37.21
59417;BME280;45222;52.458;20.914;2023-04-29T14:11:00;100368.58;;;18.65;37.28
59417;BME280;45222;52.458;20.914;2023-04-29T14:14:45;100368.41;;;18.47;37.67
59417;BME280;45222;52.458;20.914;2023-04-29T14:18:31;100373.38;;;18.26;38.34
59417;BME280;45222;52.458;20.914;2023-04-29T14:22:16;100374.09;;;18.12;38.71
59417;BME280;45222;52.458;20.914;2023-04-29T14:26:01;100373.55;;;18.01;39.09
59417;BME280;45222;52.458;20.914;2023-04-29T14:29:47;100372.28;;;17.90;38.75
59417;BME280;45222;52.458;20.914;2023-04-29T14:33:32;100369.74;;;17.83;39.08
59417;BME280;45222;52.458;20.914;2023-04-29T14:37:17;100369.55;;;17.78;39.38
59417;BME280;45222;52.458;20.914;2023-04-29T14:41:03;100365.59;;;17.74;40.08
59417;BME280;45222;52.458;20.914;2023-04-29T14:44:48;100364.91;;;17.71;39.89
59417;BME280;45222;52.458;20.914;2023-04-29T14:48:33;100363.33;;;17.71;39.86
59417;BME280;45222;52.458;20.914;2023-04-29T14:52:19;100361.13;;;17.71;40.08
59417;BME280;45222;52.458;20.914;2023-04-29T14:56:04;100358.23;;;17.69;40.33
59417;BME280;45222;52.458;20.914;2023-04-29T14:59:51;100361.66;;;17.72;40.99
59417;BME280;45222;52.458;20.914;2023-04-29T15:03:36;100353.95;;;17.73;40.96
59417;BME280;45222;52.458;20.914;2023-04-29T15:07:22;100353.31;;;17.77;40.76
59417;BME280;45222;52.458;20.914;2023-04-29T15:11:15;100357.89;;;17.78;40.64
59417;BME280;45222;52.458;20.914;2023-04-29T15:15:05;100355.08;;;17.80;40.58
59417;BME280;45222;52.458;20.914;2023-04-29T15:18:51;100354.67;;;17.82;40.80
59417;BME280;45222;52.458;20.914;2023-04-29T15:22:36;100354.36;;;17.84;40.74
59417;BME280;45222;52.458;20.914;2023-04-29T15:26:21;100350.10;;;17.81;40.89
59417;BME280;45222;52.458;20.914;2023-04-29T15:30:08;100350.42;;;17.72;40.86
59417;BME280;45222;52.458;20.914;2023-04-29T15:33:54;100348.30;;;17.62;41.06
59417;BME280;45222;52.458;20.914;2023-04-29T15:37:39;100349.81;;;17.52;41.69
59417;BME280;45222;52.458;20.914;2023-04-29T15:41:24;100349.52;;;17.47;41.34
59417;BME280;45222;52.458;20.914;2023-04-29T15:45:11;100349.34;;;17.47;41.99
59417;BME280;45222;52.458;20.914;2023-04-29T15:48:56;100351.13;;;17.47;41.56
59417;BME280;45222;52.458;20.914;2023-04-29T15:52:41;100347.67;;;17.48;41.87
59417;BME280;45222;52.458;20.914;2023-04-29T15:56:27;100346.98;;;17.52;42.10
59417;BME280;45222;52.458;20.914;2023-04-29T16:00:14;100345.21;;;17.59;41.72
59417;BME280;45222;52.458;20.914;2023-04-29T16:03:59;100335.90;;;17.72;41.39
59417;BME280;45222;52.458;20.914;2023-04-29T16:07:44;100335.11;;;17.88;41.09
59417;BME280;45222;52.458;20.914;2023-04-29T16:11:30;100331.23;;;17.92;41.22
59417;BME280;45222;52.458;20.914;2023-04-29T16:15:15;100333.64;;;17.89;41.24
59417;BME280;45222;52.458;20.914;2023-04-29T16:19:01;100339.99;;;17.79;40.93
59417;BME280;45222;52.458;20.914;2023-04-29T16:22:46;100339.73;;;17.66;41.00
59417;BME280;45222;52.458;20.914;2023-04-29T16:26:31;100345.06;;;17.51;41.27
59417;BME280;45222;52.458;20.914;2023-04-29T16:30:16;100343.02;;;17.38;41.72
59417;BME280;45222;52.458;20.914;2023-04-29T16:34:02;100344.46;;;17.27;41.98
59417;BME280;45222;52.458;20.914;2023-04-29T16:37:47;100349.48;;;17.15;42.03
59417;BME280;45222;52.458;20.914;2023-04-29T16:41:33;100350.95;;;17.05;42.13
59417;BME280;45222;52.458;20.914;2023-04-29T16:45:19;100351.54;;;16.96;42.24
59417;BME280;45222;52.458;20.914;2023-04-29T16:49:05;100354.11;;;16.89;42.55
59417;BME280;45222;52.458;20.914;2023-04-29T16:52:50;100354.83;;;16.79;42.73
59417;BME280;45222;52.458;20.914;2023-04-29T16:56:35;100359.60;;;16.68;43.02
59417;BME280;45222;52.458;20.914;2023-04-29T17:00:21;100360.84;;;16.56;43.18
59417;BME280;45222;52.458;20.914;2023-04-29T17:04:06;100363.30;;;16.44;43.41
59417;BME280;45222;52.458;20.914;2023-04-29T17:07:52;100366.70;;;16.35;43.86
59417;BME280;45222;52.458;20.914;2023-04-29T17:11:37;100363.16;;;16.24;44.20
59417;BME280;45222;52.458;20.914;2023-04-29T17:15:23;100364.67;;;16.13;44.55
59417;BME280;45222;52.458;20.914;2023-04-29T17:19:08;100370.20;;;16.01;45.36
59417;BME280;45222;52.458;20.914;2023-04-29T17:22:53;100375.27;;;15.87;45.68
59417;BME280;45222;52.458;20.914;2023-04-29T17:26:38;100371.94;;;15.73;45.75
59417;BME280;45222;52.458;20.914;2023-04-29T17:30:24;100373.87;;;15.61;46.02
59417;BME280;45222;52.458;20.914;2023-04-29T17:34:09;100375.84;;;15.50;46.37
59417;BME280;45222;52.458;20.914;2023-04-29T17:38:01;100376.02;;;15.40;46.58
59417;BME280;45222;52.458;20.914;2023-04-29T17:41:46;100382.03;;;15.30;46.93
59417;BME280;45222;52.458;20.914;2023-04-29T17:45:32;100381.52;;;15.22;47.07
59417;BME280;45222;52.458;20.914;2023-04-29T17:49:17;100384.05;;;15.16;47.61
59417;BME280;45222;52.458;20.914;2023-04-29T17:53:02;100384.77;;;15.11;48.40
59417;BME280;45222;52.458;20.914;2023-04-29T17:56:47;100381.98;;;15.04;48.99
59417;BME280;45222;52.458;20.914;2023-04-29T18:00:34;100382.50;;;14.96;49.26
59417;BME280;45222;52.458;20.914;2023-04-29T18:04:19;100381.36;;;14.89;49.62
59417;BME280;45222;52.458;20.914;2023-04-29T18:08:05;100382.11;;;14.81;50.26
59417;BME280;45222;52.458;20.914;2023-04-29T18:11:51;100385.17;;;14.72;50.63
59417;BME280;45222;52.458;20.914;2023-04-29T18:15:40;100384.83;;;14.60;51.08
59417;BME280;45222;52.458;20.914;2023-04-29T18:19:32;100390.12;;;14.48;51.20
59417;BME280;45222;52.458;20.914;2023-04-29T18:23:20;100399.56;;;14.34;51.39
59417;BME280;45222;52.458;20.914;2023-04-29T18:27:06;100408.24;;;14.21;52.12
59417;BME280;45222;52.458;20.914;2023-04-29T18:30:51;100413.08;;;14.07;52.62
59417;BME280;45222;52.458;20.914;2023-04-29T18:34:37;100416.27;;;13.90;53.31
59417;BME280;45222;52.458;20.914;2023-04-29T18:38:23;100413.94;;;13.75;53.95
59417;BME280;45222;52.458;20.914;2023-04-29T18:42:08;100418.58;;;13.61;54.52
59417;BME280;45222;52.458;20.914;2023-04-29T18:45:54;100425.41;;;13.48;54.96
59417;BME280;45222;52.458;20.914;2023-04-29T18:49:39;100426.69;;;13.35;55.16
59417;BME280;45222;52.458;20.914;2023-04-29T18:53:26;100433.16;;;13.25;55.40
59417;BME280;45222;52.458;20.914;2023-04-29T18:57:11;100435.14;;;13.15;55.51
59417;BME280;45222;52.458;20.914;2023-04-29T19:00:56;100439.55;;;13.07;55.98
59417;BME280;45222;52.458;20.914;2023-04-29T19:04:43;100438.46;;;12.98;56.79
59417;BME280;45222;52.458;20.914;2023-04-29T19:08:28;100445.59;;;12.89;57.36
59417;BME280;45222;52.458;20.914;2023-04-29T19:12:15;100443.31;;;12.79;58.28
59417;BME280;45222;52.458;20.914;2023-04-29T19:16:00;100440.62;;;12.69;58.93
59417;BME280;45222;52.458;20.914;2023-04-29T19:19:45;100442.29;;;12.62;59.34
59417;BME280;45222;52.458;20.914;2023-04-29T19:23:30;100444.08;;;12.55;59.40
59417;BME280;45222;52.458;20.914;2023-04-29T19:27:16;100445.48;;;12.50;60.68
59417;BME280;45222;52.458;20.914;2023-04-29T19:31:01;100440.48;;;12.43;61.04